DNEN

Akanu Ibiam International Airport

Enegu, Nigeria
TAF DNEN 201545Z 2018/2124 VRB02KT 8000 BKN010 FEW020CB TEMPO 2018/2020 TS TEMPO 2105/2107 5000 HZ BECMG 2108/2110 21010KT BKN013
Issued Valid From Valid To
Jan-20 @ 15:45 UTC
(6 hours ago)
Jan-20 @ 18:00 UTC
(3 hours ago)
Jan-22 @ 00:00 UTC
(-1 days ago)
Jan-20 @ 18:00 to Jan-21 @ 08:00
TAF DNEN 201545Z 2018/2124 VRB02KT 8000 BKN010 FEW020CB
Wind Visibility Clouds
Variable at 2 knots 7,998 meters
  • Broken at 1,000' AGL
  • Few at 2,000' AGL
Expired Click to View Jan-20 @ 18:00 to Jan-20 @ 20:00
TEMPO 2018/2020 TS
Conditions
  • Thunderstorm
Temporary Jan-21 @ 05:00 to Jan-21 @ 07:00
TEMPO 2105/2107 5000 HZ
Visibility Conditions
5,005 meters
  • Haze
Becoming Jan-21 @ 08:00 to Jan-22 @ 00:00
BECMG 2108/2110 21010KT BKN013
Wind Visibility Clouds
210° at 10 knots 7,998 meters
  • Broken at 1,300' AGL
TAF DNEN 201545Z 2018/2124 VRB02KT 8000 BKN010 FEW020CB TEMPO 2018/2020 TS TEMPO 2105/2107 5000 HZ BECMG 2108/2110 21010KT BKN013
Issued Jan-20 @ 15:45 UTC
(6 hours ago)
Valid From Jan-20 @ 18:00 UTC
(3 hours ago)
Valid To Jan-22 @ 00:00 UTC
(-1 days ago)
Jan-20 @ 18:00 - Jan-21 @ 08:00
Wind Visibility
Variable at 2 knots 7,998 meters
Clouds
  • Broken at 1,000' AGL
  • Few at 2,000' AGL
Jan-20 @ 18:00 - Jan-20 @ 20:00
Conditions
  • Thunderstorm
Temporary Jan-21 @ 05:00 - Jan-21 @ 07:00
Conditions
  • Haze
Becoming Jan-21 @ 08:00 - Jan-22 @ 00:00
Wind Visibility
210° at 10 knots 7,998 meters
Clouds
  • Broken at 1,300' AGL